createdAt,value
2018-04-23T00:00:16.354Z,14.48
2018-04-23T00:01:16.407Z,14.55
2018-04-23T00:02:16.668Z,14.61
2018-04-23T00:03:16.926Z,14.67
2018-04-23T00:04:17.195Z,14.61
2018-04-23T00:05:16.469Z,14.67
2018-04-23T00:06:16.732Z,14.61
2018-04-23T00:07:16.996Z,14.67
2018-04-23T00:08:16.457Z,14.67
2018-04-23T00:09:16.723Z,14.73
2018-04-23T00:10:16.993Z,14.73
2018-04-23T00:11:17.021Z,14.73
2018-04-23T00:12:16.283Z,14.67
2018-04-23T00:13:16.549Z,14.67
2018-04-23T00:14:16.804Z,14.67
2018-04-23T00:15:17.062Z,14.67
2018-04-23T00:16:16.325Z,14.67
2018-04-23T00:17:16.594Z,14.67
2018-04-23T00:18:16.858Z,14.67
2018-04-23T00:19:17.120Z,14.67
2018-04-23T00:20:16.386Z,14.67
2018-04-23T00:21:16.434Z,14.61
2018-04-23T00:22:16.703Z,14.61
2018-04-23T00:23:16.960Z,14.61
2018-04-23T00:24:16.236Z,14.61
2018-04-23T00:25:16.496Z,14.61
2018-04-23T00:26:16.759Z,14.55
2018-04-23T00:27:17.025Z,14.61
2018-04-23T00:28:16.308Z,14.61
2018-04-23T00:29:16.576Z,14.61
2018-04-23T00:30:16.846Z,14.61
2018-04-23T00:31:16.879Z,14.61
2018-04-23T00:32:17.138Z,14.61
2018-04-23T00:33:16.403Z,14.61
2018-04-23T00:34:16.663Z,14.61
2018-04-23T00:35:16.936Z,14.61
2018-04-23T00:36:17.197Z,14.55
2018-04-23T00:37:16.471Z,14.61
2018-04-23T00:38:17.280Z,14.61
2018-04-23T00:39:16.538Z,14.61
2018-04-23T00:40:16.801Z,14.61
2018-04-23T00:41:16.831Z,14.67
2018-04-23T00:42:17.105Z,14.61
2018-04-23T00:43:16.361Z,14.61
2018-04-23T00:44:16.626Z,14.61
2018-04-23T00:45:16.892Z,14.55
2018-04-23T00:46:17.157Z,14.48
2018-04-23T00:47:16.418Z,14.36
2018-04-23T00:48:16.689Z,14.30
2018-04-23T00:49:16.946Z,14.23
2018-04-23T00:50:16.218Z,14.23
2018-04-23T00:51:16.263Z,14.23
2018-04-23T00:52:16.530Z,14.23
2018-04-23T00:53:16.792Z,14.23
2018-04-23T00:54:17.074Z,14.23
2018-04-23T00:55:16.327Z,14.17
2018-04-23T00:56:16.590Z,14.11
2018-04-23T00:57:16.856Z,14.11
2018-04-23T00:58:17.136Z,14.17
2018-04-23T00:59:16.406Z,14.11
2018-04-23T01:00:16.688Z,14.23
2018-04-23T01:01:16.713Z,14.23
2018-04-23T01:02:16.973Z,14.23
2018-04-23T01:03:16.240Z,14.17
2018-04-23T01:04:16.518Z,14.17
2018-04-23T01:05:16.791Z,14.11
2018-04-23T01:06:17.048Z,14.11
2018-04-23T01:07:16.363Z,14.11
2018-04-23T01:08:16.628Z,14.17
2018-04-23T01:09:16.895Z,14.17
2018-04-23T01:10:17.173Z,14.17
2018-04-23T01:11:16.217Z,14.17
2018-04-23T01:12:16.480Z,14.23
2018-04-23T01:13:16.751Z,14.23
2018-04-23T01:14:17.025Z,14.23
2018-04-23T01:15:16.588Z,14.23
2018-04-23T01:16:16.849Z,14.17
2018-04-23T01:17:17.106Z,14.17
2018-04-23T01:18:16.364Z,14.11
2018-04-23T01:19:16.632Z,14.05
2018-04-23T01:20:16.905Z,13.98
2018-04-23T01:21:16.935Z,13.98
2018-04-23T01:22:17.203Z,13.98
2018-04-23T01:23:16.462Z,13.92
2018-04-23T01:24:16.718Z,13.92
2018-04-23T01:25:16.982Z,13.86
2018-04-23T01:26:16.249Z,13.80
2018-04-23T01:27:16.508Z,13.73
2018-04-23T01:28:16.773Z,13.73
2018-04-23T01:29:17.049Z,13.67
2018-04-23T01:30:16.318Z,13.61
2018-04-23T01:31:16.365Z,13.55
2018-04-23T01:32:16.633Z,13.48
2018-04-23T01:33:16.890Z,13.42
2018-04-23T01:34:17.181Z,13.36
2018-04-23T01:35:16.446Z,13.30
2018-04-23T01:36:16.712Z,13.23
2018-04-23T01:37:16.976Z,13.17
2018-04-23T01:38:16.242Z,13.17
2018-04-23T01:39:16.505Z,13.17
2018-04-23T01:40:17.141Z,13.17
2018-04-23T01:41:17.183Z,13.11
2018-04-23T01:42:16.446Z,13.11
2018-04-23T01:43:16.706Z,13.05
2018-04-23T01:44:16.981Z,13.05
2018-04-23T01:45:16.242Z,12.98
2018-04-23T01:46:16.508Z,12.98
2018-04-23T01:47:16.777Z,12.98
2018-04-23T01:48:17.041Z,12.92
2018-04-23T01:49:16.299Z,12.92
2018-04-23T01:50:16.567Z,12.86
2018-04-23T01:51:16.596Z,12.80
2018-04-23T01:52:17.450Z,12.73
2018-04-23T01:53:16.708Z,12.73
2018-04-23T01:54:16.964Z,12.67
2018-04-23T01:55:16.223Z,12.67
2018-04-23T01:56:16.483Z,12.67
2018-04-23T01:57:16.750Z,12.67
2018-04-23T01:58:17.004Z,12.61
2018-04-23T01:59:16.272Z,12.67
2018-04-23T02:00:16.644Z,12.61
2018-04-23T02:01:16.700Z,12.61
2018-04-23T02:02:16.964Z,12.61
2018-04-23T02:03:16.226Z,12.73
2018-04-23T02:04:16.497Z,12.80
2018-04-23T02:05:16.763Z,12.86
2018-04-23T02:06:17.024Z,12.73
2018-04-23T02:07:16.287Z,12.73
2018-04-23T02:08:16.809Z,12.67
2018-04-23T02:09:17.080Z,12.73
2018-04-23T02:10:16.354Z,12.73
2018-04-23T02:11:16.386Z,12.67
2018-04-23T02:12:16.639Z,12.73
2018-04-23T02:13:16.906Z,12.73
2018-04-23T02:14:17.169Z,12.67
2018-04-23T02:15:16.433Z,12.67
2018-04-23T02:16:16.693Z,12.55
2018-04-23T02:17:16.962Z,12.48
2018-04-23T02:18:16.220Z,12.48
2018-04-23T02:19:16.478Z,12.36
2018-04-23T02:20:16.744Z,12.36
2018-04-23T02:21:16.801Z,12.36
2018-04-23T02:22:17.052Z,12.36
2018-04-23T02:23:16.724Z,12.30
2018-04-23T02:24:17.016Z,12.30
2018-04-23T02:25:16.292Z,12.23
2018-04-23T02:26:16.499Z,12.23
2018-04-23T02:27:16.766Z,12.30
2018-04-23T02:28:17.032Z,12.23
2018-04-23T02:29:16.303Z,12.23
2018-04-23T02:30:16.596Z,12.17
2018-04-23T02:31:16.633Z,12.11
2018-04-23T02:32:16.905Z,12.11
2018-04-23T02:33:17.165Z,12.17
2018-04-23T02:34:16.423Z,12.11
2018-04-23T02:35:16.688Z,12.05
2018-04-23T02:36:16.947Z,11.98
2018-04-23T02:37:16.210Z,11.92
2018-04-23T02:38:16.485Z,11.92
2018-04-23T02:39:16.757Z,12.05
2018-04-23T02:40:17.022Z,11.92
2018-04-23T02:41:17.090Z,11.92
2018-04-23T02:42:16.350Z,11.92
2018-04-23T02:43:16.621Z,11.86
2018-04-23T02:44:16.896Z,11.86
2018-04-23T02:45:17.158Z,11.80
2018-04-23T02:46:16.434Z,11.86
2018-04-23T02:47:16.701Z,11.80
2018-04-23T02:48:16.978Z,11.80
2018-04-23T02:49:16.253Z,11.86
2018-04-23T02:50:16.528Z,11.86
2018-04-23T02:51:16.572Z,11.86
2018-04-23T02:52:16.846Z,11.86
2018-04-23T02:53:17.113Z,11.80
2018-04-23T02:54:16.398Z,11.80
2018-04-23T02:55:16.675Z,11.86
2018-04-23T02:56:16.947Z,11.86
2018-04-23T02:57:16.210Z,11.92
2018-04-23T02:58:16.481Z,11.92
2018-04-23T02:59:16.735Z,11.92
2018-04-23T03:00:17.031Z,11.92
2018-04-23T03:01:17.055Z,11.86
2018-04-23T03:02:16.316Z,11.80
2018-04-23T03:03:16.592Z,11.73
2018-04-23T03:04:16.865Z,11.73
2018-04-23T03:05:17.143Z,11.67
2018-04-23T03:06:16.409Z,11.61
2018-04-23T03:07:16.669Z,11.61
2018-04-23T03:08:16.929Z,11.55
2018-04-23T03:09:17.202Z,11.48
2018-04-23T03:10:16.492Z,11.48
2018-04-23T03:11:16.550Z,11.42
2018-04-23T03:12:16.806Z,11.42
2018-04-23T03:13:17.060Z,11.36
2018-04-23T03:14:16.329Z,11.36
2018-04-23T03:15:16.603Z,11.30
2018-04-23T03:16:16.870Z,11.30
2018-04-23T03:17:17.131Z,11.23
2018-04-23T03:18:16.395Z,11.23
2018-04-23T03:19:16.664Z,11.23
2018-04-23T03:20:16.929Z,11.17
2018-04-23T03:21:16.982Z,11.11
2018-04-23T03:22:16.243Z,11.11
2018-04-23T03:23:16.509Z,11.05
2018-04-23T03:24:16.771Z,10.98
2018-04-23T03:25:17.031Z,10.98
2018-04-23T03:26:16.297Z,10.98
2018-04-23T03:27:16.568Z,10.98
2018-04-23T03:28:16.819Z,10.98
2018-04-23T03:29:17.084Z,10.92
2018-04-23T03:30:16.349Z,11.05
2018-04-23T03:31:16.391Z,11.11
2018-04-23T03:32:16.661Z,11.17
2018-04-23T03:33:16.921Z,11.30
2018-04-23T03:34:17.181Z,11.36
2018-04-23T03:35:16.449Z,11.36
2018-04-23T03:36:16.710Z,11.30
2018-04-23T03:37:16.975Z,11.23
2018-04-23T03:38:16.229Z,11.30
2018-04-23T03:39:16.484Z,11.30
2018-04-23T03:40:16.749Z,11.30
2018-04-23T03:41:16.776Z,11.30
2018-04-23T03:42:17.039Z,11.23
2018-04-23T03:43:16.303Z,11.23
2018-04-23T03:44:16.562Z,11.23
2018-04-23T03:45:16.824Z,11.17
2018-04-23T03:46:17.084Z,11.11
2018-04-23T03:47:16.346Z,11.11
2018-04-23T03:48:16.609Z,10.98
2018-04-23T03:49:16.870Z,10.98
2018-04-23T03:50:17.147Z,10.98
2018-04-23T03:51:17.172Z,10.92
2018-04-23T03:52:16.430Z,10.92
2018-04-23T03:53:16.686Z,10.86
2018-04-23T03:54:16.947Z,10.80
2018-04-23T03:55:16.229Z,10.73
2018-04-23T03:56:16.495Z,10.67
2018-04-23T03:57:16.755Z,10.67
2018-04-23T03:58:17.013Z,10.61
2018-04-23T03:59:16.269Z,10.67
2018-04-23T04:00:16.539Z,10.61
2018-04-23T04:01:16.581Z,10.61
2018-04-23T04:02:16.846Z,10.55
2018-04-23T04:03:17.109Z,10.55
2018-04-23T04:04:16.370Z,10.55
2018-04-23T04:05:16.642Z,10.55
2018-04-23T04:06:16.902Z,10.55
2018-04-23T04:07:17.174Z,10.55
2018-04-23T04:08:16.440Z,10.55
2018-04-23T04:09:16.728Z,10.55
2018-04-23T04:10:17.055Z,10.61
2018-04-23T04:11:17.099Z,10.55
2018-04-23T04:12:16.613Z,10.61
2018-04-23T04:13:16.876Z,10.61
2018-04-23T04:14:17.139Z,10.61
2018-04-23T04:15:16.401Z,10.61
2018-04-23T04:16:16.657Z,10.67
2018-04-23T04:17:16.932Z,10.67
2018-04-23T04:18:17.192Z,10.67
2018-04-23T04:19:16.460Z,10.61
2018-04-23T04:20:16.724Z,10.67
2018-04-23T04:21:16.769Z,10.67
2018-04-23T04:22:17.022Z,10.73
2018-04-23T04:23:16.287Z,10.80
2018-04-23T04:24:16.545Z,10.86
2018-04-23T04:25:16.812Z,10.86
2018-04-23T04:26:17.097Z,10.86
2018-04-23T04:27:16.351Z,10.86
2018-04-23T04:28:16.626Z,10.86
2018-04-23T04:29:16.896Z,10.86
2018-04-23T04:30:17.206Z,10.86
2018-04-23T04:31:16.214Z,10.86
2018-04-23T04:32:16.475Z,10.86
2018-04-23T04:33:16.737Z,10.86
2018-04-23T04:34:17.004Z,10.80
2018-04-23T04:35:16.262Z,10.86
2018-04-23T04:36:16.530Z,10.86
2018-04-23T04:37:16.782Z,10.86
2018-04-23T04:38:17.039Z,10.86
2018-04-23T04:39:16.361Z,10.86
2018-04-23T04:40:16.628Z,10.86
2018-04-23T04:41:16.673Z,10.86
2018-04-23T04:42:16.941Z,10.86
2018-04-23T04:43:17.206Z,10.86
2018-04-23T04:44:16.489Z,10.80
2018-04-23T04:45:16.783Z,10.80
2018-04-23T04:46:17.054Z,10.80
2018-04-23T04:47:16.585Z,10.80
2018-04-23T04:48:16.849Z,10.80
2018-04-23T04:49:17.120Z,10.80
2018-04-23T04:50:16.389Z,10.86
2018-04-23T04:51:16.426Z,10.92
2018-04-23T04:52:17.014Z,10.98
2018-04-23T04:53:16.273Z,10.98
2018-04-23T04:54:16.540Z,11.05
2018-04-23T04:55:16.801Z,11.05
2018-04-23T04:56:17.080Z,11.11
2018-04-23T04:57:16.342Z,11.11
2018-04-23T04:58:16.619Z,11.17
2018-04-23T04:59:16.882Z,11.23
2018-04-23T05:00:17.153Z,11.30
2018-04-23T05:01:17.189Z,11.42
2018-04-23T05:02:16.452Z,11.42
2018-04-23T05:03:16.710Z,11.48
2018-04-23T05:04:16.972Z,11.55
2018-04-23T05:05:16.226Z,11.55
2018-04-23T05:06:16.489Z,11.61
2018-04-23T05:07:16.782Z,11.67
2018-04-23T05:08:17.055Z,11.73
2018-04-23T05:09:16.317Z,11.73
2018-04-23T05:10:16.602Z,11.86
2018-04-23T05:11:16.625Z,11.98
2018-04-23T05:12:16.891Z,12.05
2018-04-23T05:13:17.155Z,12.11
2018-04-23T05:14:16.425Z,12.11
2018-04-23T05:15:16.695Z,12.11
2018-04-23T05:16:16.962Z,12.17
2018-04-23T05:17:16.228Z,12.05
2018-04-23T05:18:16.496Z,12.11
2018-04-23T05:19:16.762Z,12.17
2018-04-23T05:20:17.038Z,12.17
2018-04-23T05:21:17.080Z,12.23
2018-04-23T05:22:16.341Z,12.23
2018-04-23T05:23:16.604Z,12.30
2018-04-23T05:24:16.868Z,12.36
2018-04-23T05:25:17.126Z,12.42
2018-04-23T05:26:16.382Z,12.48
2018-04-23T05:27:16.652Z,12.48
2018-04-23T05:28:16.930Z,12.55
2018-04-23T05:29:17.192Z,12.55
2018-04-23T05:30:16.467Z,12.55
2018-04-23T05:31:16.512Z,12.61
2018-04-23T05:32:16.770Z,12.61
2018-04-23T05:33:17.037Z,12.61
2018-04-23T05:34:16.305Z,12.61
2018-04-23T05:35:16.590Z,12.67
2018-04-23T05:36:16.870Z,12.67
2018-04-23T05:37:17.142Z,12.67
2018-04-23T05:38:16.399Z,12.73
2018-04-23T05:39:16.654Z,12.73
2018-04-23T05:40:16.922Z,12.80
2018-04-23T05:41:16.955Z,12.86
2018-04-23T05:42:16.210Z,12.92
2018-04-23T05:43:16.480Z,13.05
2018-04-23T05:44:16.739Z,13.11
2018-04-23T05:45:17.001Z,13.17
2018-04-23T05:46:16.256Z,13.23
2018-04-23T05:47:16.522Z,13.36
2018-04-23T05:48:16.783Z,13.42
2018-04-23T05:49:17.043Z,13.48
2018-04-23T05:50:16.315Z,13.48
2018-04-23T05:51:16.352Z,13.48
2018-04-23T05:52:16.601Z,13.48
2018-04-23T05:53:16.874Z,13.55
2018-04-23T05:54:17.139Z,13.61
2018-04-23T05:55:16.422Z,13.67
2018-04-23T05:56:16.685Z,13.80
2018-04-23T05:57:16.947Z,13.86
2018-04-23T05:58:16.203Z,13.98
2018-04-23T05:59:16.461Z,14.05
2018-04-23T06:00:16.736Z,14.05
2018-04-23T06:01:16.787Z,14.11
2018-04-23T06:02:17.046Z,14.23
2018-04-23T06:03:16.304Z,14.30
2018-04-23T06:04:16.575Z,14.36
2018-04-23T06:05:16.873Z,14.36
2018-04-23T06:06:16.228Z,14.42
2018-04-23T06:07:16.491Z,14.42
2018-04-23T06:08:16.748Z,14.55
2018-04-23T06:09:17.044Z,14.67
2018-04-23T06:10:16.336Z,14.73
2018-04-23T06:11:16.355Z,14.80
2018-04-23T06:12:16.619Z,14.92
2018-04-23T06:13:16.877Z,14.98
2018-04-23T06:14:17.164Z,14.98
2018-04-23T06:15:16.546Z,14.98
2018-04-23T06:16:16.867Z,14.92
2018-04-23T06:17:17.131Z,14.86
2018-04-23T06:18:16.398Z,14.86
2018-04-23T06:19:16.661Z,14.86
2018-04-23T06:20:16.934Z,14.92
2018-04-23T06:21:16.962Z,14.86
2018-04-23T06:22:16.232Z,14.92
2018-04-23T06:23:16.495Z,14.98
2018-04-23T06:24:16.748Z,14.98
2018-04-23T06:25:17.009Z,15.05
2018-04-23T06:26:16.263Z,15.05
2018-04-23T06:27:16.540Z,15.17
2018-04-23T06:28:16.813Z,15.23
2018-04-23T06:29:17.088Z,15.23
2018-04-23T06:30:16.352Z,15.36
2018-04-23T06:31:16.396Z,15.30
2018-04-23T06:32:16.667Z,15.30
2018-04-23T06:33:16.927Z,15.42
2018-04-23T06:34:17.194Z,15.42
2018-04-23T06:35:16.616Z,15.42
2018-04-23T06:36:16.881Z,15.61
2018-04-23T06:37:17.143Z,15.86
2018-04-23T06:38:16.400Z,15.98
2018-04-23T06:39:16.656Z,16.17
2018-04-23T06:40:16.942Z,16.30
2018-04-23T06:41:16.964Z,16.48
2018-04-23T06:42:16.234Z,16.61
2018-04-23T06:43:16.493Z,16.73
2018-04-23T06:44:16.751Z,16.80
2018-04-23T06:45:17.021Z,16.86
2018-04-23T06:46:16.288Z,16.98
2018-04-23T06:47:16.552Z,17.05
2018-04-23T06:48:16.835Z,17.17
2018-04-23T06:49:17.098Z,17.30
2018-04-23T06:50:16.364Z,17.42
2018-04-23T06:51:16.402Z,17.73
2018-04-23T06:52:16.669Z,17.92
2018-04-23T06:53:16.942Z,18.11
2018-04-23T06:54:17.212Z,18.23
2018-04-23T06:55:16.475Z,18.36
2018-04-23T06:56:16.732Z,18.36
2018-04-23T06:57:17.012Z,18.42
2018-04-23T06:58:16.273Z,18.30
2018-04-23T06:59:16.541Z,18.23
2018-04-23T07:00:16.808Z,18.36
2018-04-23T07:01:16.858Z,18.36
2018-04-23T07:02:17.125Z,18.36
2018-04-23T07:03:16.390Z,18.30
2018-04-23T07:04:16.649Z,18.36
2018-04-23T07:05:16.905Z,18.42
2018-04-23T07:06:17.167Z,18.48
2018-04-23T07:07:16.429Z,18.48
2018-04-23T07:08:16.688Z,18.55
2018-04-23T07:09:16.949Z,18.55
2018-04-23T07:10:16.210Z,18.55
2018-04-23T07:11:16.256Z,18.67
2018-04-23T07:12:16.523Z,18.55
2018-04-23T07:13:16.781Z,18.67
2018-04-23T07:14:17.051Z,18.86
2018-04-23T07:15:16.301Z,18.80
2018-04-23T07:16:16.553Z,18.86
2018-04-23T07:17:16.804Z,19.11
2018-04-23T07:18:17.075Z,19.11
2018-04-23T07:19:16.328Z,19.30
2018-04-23T07:20:16.591Z,19.55
2018-04-23T07:21:16.653Z,19.73
2018-04-23T07:22:16.918Z,19.86
2018-04-23T07:23:17.179Z,19.98
2018-04-23T07:24:16.438Z,19.92
2018-04-23T07:25:16.696Z,20.17
2018-04-23T07:26:16.954Z,20.36
2018-04-23T07:27:16.223Z,20.42
2018-04-23T07:28:16.483Z,20.61
2018-04-23T07:29:16.746Z,20.55
2018-04-23T07:30:17.054Z,20.73
2018-04-23T07:31:17.090Z,20.92
2018-04-23T07:32:16.350Z,21.05
2018-04-23T07:33:16.629Z,21.11
2018-04-23T07:34:16.893Z,21.23
2018-04-23T07:35:17.154Z,21.23
2018-04-23T07:36:16.416Z,21.11
2018-04-23T07:37:16.672Z,21.17
2018-04-23T07:38:16.930Z,21.17
2018-04-23T07:39:17.224Z,21.11
2018-04-23T07:40:16.544Z,21.05
2018-04-23T07:41:16.604Z,20.86
2018-04-23T07:42:16.880Z,20.86
2018-04-23T07:43:17.145Z,20.92
2018-04-23T07:44:16.404Z,21.05
2018-04-23T07:45:16.668Z,21.17
2018-04-23T07:46:16.939Z,21.36
2018-04-23T07:47:17.218Z,21.42
2018-04-23T07:48:16.479Z,21.23
2018-04-23T07:49:16.746Z,21.23
2018-04-23T07:50:17.028Z,21.17
2018-04-23T07:51:17.049Z,21.17
2018-04-23T07:52:16.309Z,21.05
2018-04-23T07:53:16.568Z,21.05
2018-04-23T07:54:16.841Z,20.98
2018-04-23T07:55:17.178Z,20.92
2018-04-23T07:56:16.450Z,20.80
2018-04-23T07:57:16.713Z,20.80
2018-04-23T07:58:16.985Z,20.67
2018-04-23T07:59:16.253Z,20.73
2018-04-23T08:00:16.521Z,20.67
2018-04-23T08:01:16.549Z,20.55
2018-04-23T08:02:16.810Z,20.55
2018-04-23T08:03:17.084Z,20.55
2018-04-23T08:04:16.340Z,20.55
2018-04-23T08:05:16.603Z,20.55
2018-04-23T08:06:16.866Z,20.61
2018-04-23T08:07:17.125Z,20.73
2018-04-23T08:08:16.387Z,20.67
2018-04-23T08:09:16.651Z,20.61
2018-04-23T08:10:16.935Z,20.80
2018-04-23T08:11:16.977Z,20.86
2018-04-23T08:12:16.260Z,20.80
2018-04-23T08:13:16.628Z,20.92
2018-04-23T08:14:16.892Z,21.05
2018-04-23T08:15:17.154Z,21.30
2018-04-23T08:16:16.433Z,21.48
2018-04-23T08:17:16.702Z,21.55
2018-04-23T08:18:16.962Z,21.80
2018-04-23T08:19:16.224Z,21.86
2018-04-23T08:20:16.490Z,21.86
2018-04-23T08:21:16.524Z,21.98
2018-04-23T08:22:16.793Z,21.98
2018-04-23T08:23:17.058Z,21.73
2018-04-23T08:24:16.323Z,21.73
2018-04-23T08:25:16.589Z,21.67
2018-04-23T08:26:16.855Z,21.86
2018-04-23T08:27:17.122Z,21.86
2018-04-23T08:28:16.387Z,21.73
2018-04-23T08:29:16.644Z,21.67
2018-04-23T08:30:16.915Z,21.55
2018-04-23T08:31:16.954Z,21.42
2018-04-23T08:32:16.217Z,21.36
2018-04-23T08:33:16.479Z,21.48
2018-04-23T08:34:16.741Z,21.36
2018-04-23T08:35:17.002Z,21.30
2018-04-23T08:36:16.268Z,21.42
2018-04-23T08:37:16.533Z,21.48
2018-04-23T08:38:16.804Z,21.73
2018-04-23T08:39:17.065Z,21.92
2018-04-23T08:40:16.325Z,21.92
2018-04-23T08:41:16.370Z,21.92
2018-04-23T08:42:16.633Z,21.73
2018-04-23T08:43:16.903Z,22.11
2018-04-23T08:44:17.175Z,22.36
2018-04-23T08:45:16.433Z,22.98
2018-04-23T08:46:16.690Z,23.67
2018-04-23T08:47:16.955Z,24.48
2018-04-23T08:48:16.223Z,24.80
2018-04-23T08:49:16.488Z,24.61
2018-04-23T08:50:16.761Z,25.67
2018-04-23T08:51:16.789Z,26.30
2018-04-23T08:52:17.064Z,25.98
2018-04-23T08:53:16.332Z,26.17
2018-04-23T08:54:16.617Z,26.17
2018-04-23T08:55:16.885Z,26.11
2018-04-23T08:56:17.157Z,26.30
2018-04-23T08:57:16.414Z,26.30
2018-04-23T08:58:16.672Z,25.36
2018-04-23T08:59:16.931Z,25.98
2018-04-23T09:00:17.216Z,25.98
2018-04-23T09:01:16.257Z,25.42
2018-04-23T09:02:16.522Z,25.05
2018-04-23T09:03:16.785Z,24.11
2018-04-23T09:04:17.059Z,23.11
2018-04-23T09:05:16.319Z,23.05
2018-04-23T09:06:16.585Z,22.67
2018-04-23T09:07:16.861Z,22.42
2018-04-23T09:08:17.122Z,22.17
2018-04-23T09:09:16.384Z,22.11
2018-04-23T09:10:16.660Z,21.92
2018-04-23T09:11:16.713Z,21.73
2018-04-23T09:12:16.975Z,21.42
2018-04-23T09:13:16.232Z,21.42
2018-04-23T09:14:16.500Z,21.36
2018-04-23T09:15:16.789Z,21.36
2018-04-23T09:16:17.045Z,21.48
2018-04-23T09:17:16.312Z,21.61
2018-04-23T09:18:16.572Z,21.42
2018-04-23T09:19:16.838Z,21.48
2018-04-23T09:20:17.096Z,21.36
2018-04-23T09:21:17.140Z,21.42
2018-04-23T09:22:16.400Z,21.42
2018-04-23T09:23:16.663Z,21.05
2018-04-23T09:24:16.923Z,20.67
2018-04-23T09:25:17.185Z,20.92
2018-04-23T09:26:16.440Z,20.92
2018-04-23T09:27:16.710Z,20.61
2018-04-23T09:28:16.957Z,20.42
2018-04-23T09:29:16.556Z,20.48
2018-04-23T09:30:16.812Z,20.67
2018-04-23T09:31:16.887Z,20.73
2018-04-23T09:32:17.419Z,20.67
2018-04-23T09:33:16.675Z,20.55
2018-04-23T09:34:16.961Z,20.73
2018-04-23T09:35:16.224Z,20.36
2018-04-23T09:36:16.494Z,20.17
2018-04-23T09:37:16.770Z,20.05
2018-04-23T09:38:17.049Z,20.05
2018-04-23T09:39:16.315Z,20.05
2018-04-23T09:40:16.587Z,19.98
2018-04-23T09:41:16.634Z,19.98
2018-04-23T09:42:16.894Z,19.73
2018-04-23T09:43:17.183Z,19.61
2018-04-23T09:44:16.443Z,19.73
2018-04-23T09:45:16.715Z,19.80
2018-04-23T09:46:16.990Z,19.73
2018-04-23T09:47:16.256Z,19.80
2018-04-23T09:48:16.520Z,19.73
2018-04-23T09:49:16.780Z,19.55
2018-04-23T09:50:17.056Z,19.42
2018-04-23T09:51:17.085Z,19.11
2018-04-23T09:52:16.355Z,19.05
2018-04-23T09:53:16.620Z,18.92
2018-04-23T09:54:16.885Z,18.80
2018-04-23T09:55:17.145Z,18.61
2018-04-23T09:56:16.399Z,18.55
2018-04-23T09:57:16.664Z,18.36
2018-04-23T09:58:16.921Z,18.11
2018-04-23T09:59:17.181Z,17.98
2018-04-23T10:00:16.457Z,17.98
2018-04-23T10:01:16.507Z,17.86
2018-04-23T10:02:16.785Z,17.86
2018-04-23T10:03:17.042Z,17.86
2018-04-23T10:04:16.400Z,17.67
2018-04-23T10:05:16.660Z,17.36
2018-04-23T10:06:16.916Z,17.23
2018-04-23T10:07:17.174Z,16.98
2018-04-23T10:08:16.439Z,16.92
2018-04-23T10:09:16.704Z,16.73
2018-04-23T10:10:16.976Z,16.55
2018-04-23T10:11:17.005Z,16.30
2018-04-23T10:12:16.271Z,16.11
2018-04-23T10:13:16.547Z,15.98
2018-04-23T10:14:16.812Z,15.86
2018-04-23T10:15:17.077Z,15.73
2018-04-23T10:16:16.370Z,15.73
2018-04-23T10:17:16.632Z,15.61
2018-04-23T10:18:16.896Z,15.48
2018-04-23T10:19:17.157Z,15.17
2018-04-23T10:20:16.425Z,14.98
2018-04-23T10:21:16.462Z,14.86
2018-04-23T10:22:16.722Z,14.80
2018-04-23T10:23:16.992Z,14.73
2018-04-23T10:24:16.259Z,14.61
2018-04-23T10:25:16.520Z,14.55
2018-04-23T10:26:16.788Z,14.48
2018-04-23T10:27:17.051Z,14.42
2018-04-23T10:28:16.314Z,14.48
2018-04-23T10:29:16.571Z,14.36
2018-04-23T10:30:16.845Z,14.42
2018-04-23T10:31:16.868Z,14.42
2018-04-23T10:32:17.244Z,14.42
2018-04-23T10:33:16.504Z,14.48
2018-04-23T10:34:16.783Z,14.36
2018-04-23T10:35:17.054Z,14.36
2018-04-23T10:36:16.318Z,14.42
2018-04-23T10:37:16.577Z,14.42
2018-04-23T10:38:16.857Z,14.36
2018-04-23T10:39:17.124Z,14.42
2018-04-23T10:40:16.399Z,14.42
2018-04-23T10:41:16.428Z,14.36
2018-04-23T10:42:16.696Z,14.42
2018-04-23T10:43:16.954Z,14.42
2018-04-23T10:44:16.224Z,14.48
2018-04-23T10:45:16.498Z,14.55
2018-04-23T10:46:16.772Z,14.55
2018-04-23T10:47:17.037Z,14.61
2018-04-23T10:48:16.309Z,14.61
2018-04-23T10:49:16.568Z,14.67
2018-04-23T10:50:16.841Z,14.73
2018-04-23T10:51:16.869Z,14.73
2018-04-23T10:52:17.133Z,14.80
2018-04-23T10:53:16.393Z,14.92
2018-04-23T10:54:16.661Z,14.98
2018-04-23T10:55:16.930Z,14.98
2018-04-23T10:56:17.189Z,15.05
2018-04-23T10:57:16.453Z,15.05
2018-04-23T10:58:16.737Z,15.05
2018-04-23T10:59:17.004Z,15.11
2018-04-23T11:00:16.369Z,15.23
2018-04-23T11:01:16.314Z,15.36
2018-04-23T11:02:16.573Z,15.48
2018-04-23T11:03:16.843Z,15.48
2018-04-23T11:04:17.112Z,15.67
2018-04-23T11:05:16.381Z,15.67
2018-04-23T11:06:16.649Z,15.73
2018-04-23T11:07:16.908Z,15.80
2018-04-23T11:08:17.183Z,15.80
2018-04-23T11:09:16.441Z,15.86
2018-04-23T11:10:16.709Z,15.98
2018-04-23T11:11:16.737Z,16.05
2018-04-23T11:12:16.995Z,15.92
2018-04-23T11:13:16.266Z,15.98
2018-04-23T11:14:16.540Z,15.98
2018-04-23T11:15:16.808Z,15.98
2018-04-23T11:16:17.076Z,15.92
2018-04-23T11:17:16.334Z,16.11
2018-04-23T11:18:16.595Z,16.23
2018-04-23T11:19:16.861Z,16.28
2018-04-23T11:20:17.129Z,16.17
2018-04-23T11:21:17.172Z,16.25
2018-04-23T11:22:16.428Z,16.25
2018-04-23T11:23:16.697Z,16.35
2018-04-23T11:24:16.953Z,16.35
2018-04-23T11:25:16.217Z,16.37
2018-04-23T11:26:16.477Z,16.30
2018-04-23T11:27:16.745Z,16.23
2018-04-23T11:28:17.004Z,16.30
2018-04-23T11:29:16.267Z,16.30
2018-04-23T11:30:16.531Z,16.42
2018-04-23T11:31:16.600Z,16.23
2018-04-23T11:32:16.865Z,16.23
2018-04-23T11:33:17.125Z,16.30
2018-04-23T11:34:16.385Z,16.42
2018-04-23T11:35:16.650Z,16.36
2018-04-23T11:36:16.912Z,16.36
2018-04-23T11:37:17.174Z,16.36
2018-04-23T11:38:16.440Z,16.36
2018-04-23T11:39:16.693Z,16.36
2018-04-23T11:40:16.963Z,16.55
2018-04-23T11:41:17.001Z,16.58
2018-04-23T11:42:16.268Z,16.62
2018-04-23T11:43:16.533Z,16.68
2018-04-23T11:44:16.795Z,16.65
2018-04-23T11:45:17.053Z,16.61
2018-04-23T11:46:16.369Z,16.48
2018-04-23T11:47:16.629Z,16.61
2018-04-23T11:48:16.889Z,16.73
2018-04-23T11:49:17.151Z,16.73
2018-04-23T11:50:16.416Z,16.86
2018-04-23T11:51:16.453Z,16.92
2018-04-23T11:52:16.716Z,17.11
2018-04-23T11:53:16.977Z,17.08
2018-04-23T11:54:16.231Z,16.98
2018-04-23T11:55:16.489Z,17.05
2018-04-23T11:56:16.754Z,16.86
2018-04-23T11:57:17.012Z,16.86
2018-04-23T11:58:16.269Z,16.92
2018-04-23T11:59:16.528Z,16.86
2018-04-23T12:00:16.970Z,16.73
2018-04-23T12:01:17.026Z,16.61
2018-04-23T12:02:16.302Z,16.61
2018-04-23T12:03:16.560Z,16.67
2018-04-23T12:04:16.833Z,16.73
2018-04-23T12:05:17.129Z,16.86
2018-04-23T12:06:16.392Z,16.92
2018-04-23T12:07:16.652Z,16.98
2018-04-23T12:08:16.909Z,17.17
2018-04-23T12:09:17.171Z,17.23
2018-04-23T12:10:16.436Z,17.17
2018-04-23T12:11:16.503Z,17.17
2018-04-23T12:12:16.770Z,17.05
2018-04-23T12:13:17.028Z,17.09
2018-04-23T12:14:16.304Z,17.08
2018-04-23T12:15:16.590Z,17.11
2018-04-23T12:16:16.852Z,17.15
2018-04-23T12:17:17.124Z,17.09
2018-04-23T12:18:16.389Z,17.13
2018-04-23T12:19:16.654Z,17.15
2018-04-23T12:20:16.912Z,17.37
2018-04-23T12:21:16.963Z,17.42
2018-04-23T12:22:16.231Z,17.54
2018-04-23T12:23:16.514Z,17.75
2018-04-23T12:24:16.776Z,17.77
2018-04-23T12:25:17.042Z,17.71
2018-04-23T12:26:16.306Z,17.75
2018-04-23T12:27:16.568Z,17.88
2018-04-23T12:28:16.830Z,17.91
2018-04-23T12:29:17.098Z,17.96
2018-04-23T12:30:16.370Z,17.99
2018-04-23T12:31:16.455Z,18.06
2018-04-23T12:32:16.764Z,18.17
2018-04-23T12:33:17.026Z,18.19
2018-04-23T12:34:16.284Z,18.12
2018-04-23T12:35:16.556Z,18.17
2018-04-23T12:36:16.813Z,18.22
2018-04-23T12:37:17.082Z,18.15
2018-04-23T12:38:16.353Z,18.10
2018-04-23T12:39:16.612Z,18.13
2018-04-23T12:40:16.880Z,18.17
2018-04-23T12:41:16.918Z,18.32
2018-04-23T12:42:17.196Z,18.42
2018-04-23T12:43:16.464Z,18.23
2018-04-23T12:44:16.723Z,18.36
2018-04-23T12:45:16.986Z,18.36
2018-04-23T12:46:16.353Z,18.36
2018-04-23T12:47:16.749Z,18.42
2018-04-23T12:48:17.008Z,18.42
2018-04-23T12:49:16.270Z,18.51
2018-04-23T12:50:16.538Z,18.47
2018-04-23T12:51:16.585Z,18.61
2018-04-23T12:52:16.849Z,18.48